Time;durP1;ratioP1;P1;durP2;ratioP2;P2;SDS_P1;SDS_P2;PMS_P1;PMS_P2;Temp;Humidity;BMP_temperature;BMP_pressure;BME280_temperature;BME280_humidity;BME280_pressure;Samples;Min_cycle;Max_cycle;Signal;HPM_P1;HPM_P2
2024/03/30 00:00:53;;;;;;;44.25;7.63;;;14.90;83.00;;;;;;4968758;28;113963;-51
2024/03/30 00:03:20;;;;;;;43.15;7.05;;;14.90;83.00;;;;;;4969826;28;112474;-51
2024/03/30 00:05:46;;;;;;;43.85;7.18;;;14.90;83.10;;;;;;4969709;28;112672;-51
2024/03/30 00:08:13;;;;;;;36.05;6.43;;;14.90;83.10;;;;;;4968658;28;113138;-51
2024/03/30 00:10:40;;;;;;;42.85;6.80;;;14.90;83.20;;;;;;4968651;28;112809;-51
2024/03/30 00:13:07;;;;;;;34.47;6.40;;;14.80;83.10;;;;;;4969661;28;112824;-51
2024/03/30 00:15:33;;;;;;;40.40;6.70;;;14.90;83.10;;;;;;4969477;28;112785;-51
2024/03/30 00:17:59;;;;;;;42.17;6.45;;;14.80;83.00;;;;;;4968569;28;113238;-51
2024/03/30 00:20:28;;;;;;;36.08;6.95;;;14.80;83.00;;;;;;4968423;28;112951;-50
2024/03/30 00:22:54;;;;;;;39.25;6.97;;;14.80;83.00;;;;;;4969599;28;112629;-51
2024/03/30 00:25:23;;;;;;;40.30;7.78;;;14.80;82.90;;;;;;4969532;28;112657;-51
2024/03/30 00:27:49;;;;;;;53.90;10.70;;;14.80;82.80;;;;;;4968446;28;114469;-51
2024/03/30 00:30:19;;;;;;;38.30;7.05;;;14.90;82.70;;;;;;4967402;28;112622;-51
2024/03/30 00:32:47;;;;;;;42.95;6.55;;;14.90;82.50;;;;;;4969342;28;112805;-51
2024/03/30 00:35:13;;;;;;;44.30;6.25;;;14.90;82.50;;;;;;4969617;28;113427;-52
2024/03/30 00:37:39;;;;;;;49.60;7.53;;;14.80;82.70;;;;;;4967791;28;114202;-51
2024/03/30 00:40:06;;;;;;;41.15;6.07;;;14.80;82.80;;;;;;4967711;28;113988;-51
2024/03/30 00:42:32;;;;;;;40.90;7.28;;;14.80;82.90;;;;;;4967505;28;113012;-51
2024/03/30 00:44:58;;;;;;;42.80;6.18;;;14.80;82.90;;;;;;4975590;28;112792;-52
2024/03/30 00:47:23;;;;;;;35.10;7.75;;;14.70;83.00;;;;;;4983105;28;113197;-52
2024/03/30 00:49:49;;;;;;;31.33;5.93;;;14.60;83.10;;;;;;4966808;28;113949;-51
2024/03/30 00:52:15;;;;;;;37.17;6.38;;;14.60;83.30;;;;;;4968356;28;112846;-51
2024/03/30 00:54:41;;;;;;;43.35;7.43;;;14.60;83.30;;;;;;4968698;28;112765;-52
2024/03/30 00:57:06;;;;;;;37.97;6.93;;;14.60;83.20;;;;;;4969029;28;113238;-51
2024/03/30 00:59:32;;;;;;;42.00;6.50;;;14.60;83.20;;;;;;4967366;28;112653;-51
2024/03/30 01:01:58;;;;;;;42.58;6.65;;;14.60;83.20;;;;;;4968252;28;112946;-51
2024/03/30 01:04:24;;;;;;;41.10;7.25;;;14.60;83.20;;;;;;4968279;28;112728;-51
2024/03/30 01:06:50;;;;;;;41.20;7.28;;;14.60;83.30;;;;;;4967809;28;114330;-51
2024/03/30 01:09:16;;;;;;;42.00;6.32;;;14.60;83.40;;;;;;4982822;28;113046;-52
2024/03/30 01:11:42;;;;;;;42.20;7.25;;;14.70;83.30;;;;;;4971870;28;112919;-52
2024/03/30 01:14:07;;;;;;;37.97;6.05;;;14.60;83.30;;;;;;4974234;28;112822;-52
2024/03/30 01:16:33;;;;;;;43.25;7.75;;;14.70;83.30;;;;;;4966916;28;113222;-52
2024/03/30 01:18:59;;;;;;;43.00;6.82;;;14.60;83.50;;;;;;4973020;28;114572;-51
2024/03/30 01:21:25;;;;;;;41.08;8.30;;;14.60;83.60;;;;;;4968462;28;112552;-51
2024/03/30 01:23:52;;;;;;;45.92;7.32;;;14.60;83.60;;;;;;4966478;28;113384;-51
2024/03/30 01:26:19;;;;;;;46.40;7.68;;;14.60;83.60;;;;;;4967052;28;114409;-51
2024/03/30 01:28:46;;;;;;;39.75;7.05;;;14.60;83.60;;;;;;4966757;28;115215;-51
2024/03/30 01:31:13;;;;;;;42.05;8.63;;;14.70;83.70;;;;;;4967583;28;112814;-51
2024/03/30 01:33:39;;;;;;;39.83;6.72;;;14.60;83.70;;;;;;4964859;28;112737;-51
2024/03/30 01:36:06;;;;;;;42.42;6.82;;;14.60;83.70;;;;;;4960132;28;113377;-51
2024/03/30 01:38:32;;;;;;;44.05;7.10;;;14.60;83.70;;;;;;4960340;28;113752;-51
2024/03/30 01:40:58;;;;;;;42.38;6.53;;;14.60;83.70;;;;;;4965557;28;112830;-51
2024/03/30 01:43:24;;;;;;;44.40;6.90;;;14.60;83.70;;;;;;4967924;28;113318;-51
2024/03/30 01:45:52;;;;;;;42.60;7.00;;;14.70;83.70;;;;;;4966801;28;113268;-52
2024/03/30 01:48:20;;;;;;;48.30;7.03;;;14.60;83.60;;;;;;4966146;28;113940;-51
2024/03/30 01:50:47;;;;;;;37.78;6.75;;;14.60;83.60;;;;;;4967449;28;112964;-51
2024/03/30 01:53:18;;;;;;;40.72;6.68;;;14.60;83.60;;;;;;4967504;28;113213;-51
2024/03/30 01:55:48;;;;;;;39.22;6.82;;;14.60;83.60;;;;;;4966614;28;114452;-52
2024/03/30 01:58:18;;;;;;;44.10;7.78;;;14.60;83.60;;;;;;4968150;28;113504;-51
2024/03/30 02:00:45;;;;;;;40.53;6.15;;;14.50;83.70;;;;;;4971717;28;112962;-51
2024/03/30 02:03:11;;;;;;;44.97;7.05;;;14.50;83.80;;;;;;4971179;28;112836;-51
2024/03/30 02:05:38;;;;;;;41.15;6.95;;;14.50;83.80;;;;;;4970441;28;113303;-51
2024/03/30 02:08:05;;;;;;;48.22;7.03;;;14.50;83.80;;;;;;4969854;28;114204;-51
2024/03/30 02:10:33;;;;;;;46.35;7.28;;;14.60;83.80;;;;;;4971216;28;112798;-51
2024/03/30 02:12:58;;;;;;;52.20;6.38;;;14.50;83.80;;;;;;4971299;28;113306;-51
2024/03/30 02:15:24;;;;;;;46.85;6.32;;;14.40;83.90;;;;;;4970009;28;113782;-52
2024/03/30 02:17:50;;;;;;;41.30;6.50;;;14.40;84.00;;;;;;4969871;28;113783;-51
2024/03/30 02:20:16;;;;;;;40.25;6.25;;;14.40;84.10;;;;;;4971067;28;112754;-51
2024/03/30 02:22:52;;;;;;;40.38;6.70;;;14.40;84.20;;;;;;4971378;28;112750;-51
2024/03/30 02:25:22;;;;;;;50.15;7.57;;;14.40;84.10;;;;;;4970130;28;113743;-51
2024/03/30 02:27:48;;;;;;;38.45;6.85;;;14.30;84.20;;;;;;4969709;28;112807;-51
2024/03/30 02:30:24;;;;;;;44.30;8.13;;;14.30;84.20;;;;;;4970762;28;113254;-51
2024/03/30 02:32:51;;;;;;;42.70;9.98;;;14.30;84.20;;;;;;4970696;28;112848;-51
2024/03/30 02:35:17;;;;;;;35.83;7.07;;;14.30;84.10;;;;;;4968808;28;113276;-51
2024/03/30 02:37:45;;;;;;;45.17;6.78;;;14.40;84.00;;;;;;4969679;28;113866;-51
2024/03/30 02:40:11;;;;;;;45.67;7.10;;;14.30;84.00;;;;;;4970506;28;112878;-51
2024/03/30 02:42:36;;;;;;;32.72;6.30;;;14.30;83.90;;;;;;4970892;28;112777;-51
2024/03/30 02:45:02;;;;;;;37.13;6.18;;;14.30;83.90;;;;;;4969533;28;114428;-51
2024/03/30 02:47:28;;;;;;;34.00;6.15;;;14.30;83.70;;;;;;4968926;28;113733;-51
2024/03/30 02:49:54;;;;;;;41.30;6.80;;;14.30;83.70;;;;;;4970797;28;113019;-51
2024/03/30 02:52:19;;;;;;;37.03;6.93;;;14.30;83.60;;;;;;4970406;28;112718;-51
2024/03/30 02:54:45;;;;;;;34.13;6.00;;;14.30;83.60;;;;;;4969317;28;114544;-51
2024/03/30 02:57:11;;;;;;;38.00;6.57;;;14.30;83.80;;;;;;4969228;28;112672;-51
2024/03/30 02:59:36;;;;;;;34.50;7.00;;;14.30;83.60;;;;;;4970382;28;112688;-51
2024/03/30 03:02:02;;;;;;;36.28;7.07;;;14.30;83.60;;;;;;4970579;28;112893;-51
2024/03/30 03:04:28;;;;;;;33.80;6.00;;;14.30;83.50;;;;;;4969338;28;113309;-51
2024/03/30 03:06:54;;;;;;;33.65;5.88;;;14.30;83.50;;;;;;4969026;28;113798;-51
2024/03/30 03:09:19;;;;;;;41.95;6.35;;;14.30;83.40;;;;;;4969147;28;112960;-51
2024/03/30 03:11:46;;;;;;;34.70;5.72;;;14.30;83.40;;;;;;4968758;28;112780;-51
2024/03/30 03:14:11;;;;;;;40.33;7.07;;;14.30;83.40;;;;;;4969022;28;113331;-51
2024/03/30 03:16:37;;;;;;;39.05;6.13;;;14.30;83.30;;;;;;4968996;28;112740;-51
2024/03/30 03:19:03;;;;;;;33.22;6.80;;;14.30;83.30;;;;;;4969988;28;112919;-51
2024/03/30 03:21:28;;;;;;;26.90;5.00;;;14.30;83.30;;;;;;4970087;28;112959;-51
2024/03/30 03:23:54;;;;;;;32.45;5.38;;;14.30;83.20;;;;;;4968877;28;113303;-51
2024/03/30 03:26:20;;;;;;;36.28;5.60;;;14.30;83.20;;;;;;4968801;28;112770;-52
2024/03/30 03:28:45;;;;;;;40.55;6.07;;;14.40;83.10;;;;;;4969806;28;112600;-51
2024/03/30 03:31:11;;;;;;;38.10;5.75;;;14.40;82.90;;;;;;4970100;28;112880;-51
2024/03/30 03:33:37;;;;;;;40.15;6.63;;;14.40;82.80;;;;;;4968717;28;113250;-51
2024/03/30 03:36:02;;;;;;;26.55;5.22;;;14.40;82.70;;;;;;4968773;28;113670;-51
2024/03/30 03:38:28;;;;;;;34.75;5.22;;;14.40;82.70;;;;;;4969893;28;112965;-51
2024/03/30 03:40:55;;;;;;;36.20;5.00;;;14.40;82.50;;;;;;4969800;28;112711;-51
2024/03/30 03:43:20;;;;;;;36.65;5.78;;;14.40;82.40;;;;;;4969226;28;113676;-51
2024/03/30 03:45:46;;;;;;;31.55;5.20;;;14.40;82.50;;;;;;4968368;28;113017;-51
2024/03/30 03:48:12;;;;;;;41.30;6.03;;;14.40;82.60;;;;;;4969314;28;112830;-51
2024/03/30 03:50:39;;;;;;;41.28;5.90;;;14.40;82.70;;;;;;4969380;28;112689;-52
2024/03/30 03:53:05;;;;;;;42.95;6.30;;;14.40;82.70;;;;;;4968343;28;114674;-51
2024/03/30 03:55:32;;;;;;;29.75;5.30;;;14.40;82.60;;;;;;4968436;28;112810;-51
2024/03/30 03:57:58;;;;;;;35.60;5.60;;;14.40;82.60;;;;;;4969185;28;112869;-51
2024/03/30 04:00:24;;;;;;;35.83;6.07;;;14.40;82.40;;;;;;4969757;28;113055;-51
2024/03/30 04:02:49;;;;;;;28.42;5.25;;;14.40;82.40;;;;;;4968271;28;114139;-51
2024/03/30 04:05:15;;;;;;;37.38;6.03;;;14.40;82.50;;;;;;4968535;28;112680;-51
2024/03/30 04:07:41;;;;;;;27.92;5.63;;;14.40;82.40;;;;;;4969639;28;112715;-51
2024/03/30 04:10:08;;;;;;;34.42;6.10;;;14.30;82.50;;;;;;4969090;28;112635;-51
2024/03/30 04:12:35;;;;;;;29.52;5.65;;;14.40;82.50;;;;;;4968162;28;114467;-51
2024/03/30 04:15:00;;;;;;;33.88;5.30;;;14.40;82.40;;;;;;4968171;28;113062;-51
2024/03/30 04:17:26;;;;;;;27.25;4.78;;;14.40;82.40;;;;;;4969102;28;112858;-51
2024/03/30 04:19:52;;;;;;;39.80;6.07;;;14.40;82.40;;;;;;4968465;28;112991;-51
2024/03/30 04:22:18;;;;;;;29.52;5.53;;;14.40;82.30;;;;;;4966412;28;114381;-51
2024/03/30 04:24:43;;;;;;;37.92;5.97;;;14.40;82.20;;;;;;4968032;28;114624;-51
2024/03/30 04:27:09;;;;;;;29.63;5.60;;;14.40;82.20;;;;;;4969381;28;112541;-51
2024/03/30 04:29:35;;;;;;;36.05;6.35;;;14.50;82.00;;;;;;4969218;28;112734;-51
2024/03/30 04:32:00;;;;;;;36.00;6.05;;;14.50;81.90;;;;;;4967929;28;113240;-52
2024/03/30 04:34:26;;;;;;;31.13;5.30;;;14.50;81.90;;;;;;4967557;28;113574;-51
2024/03/30 04:36:52;;;;;;;31.13;5.30;;;14.50;81.90;;;;;;4968756;28;113427;-51
2024/03/30 04:39:17;;;;;;;34.97;5.90;;;14.50;81.90;;;;;;4968481;28;113087;-51
2024/03/30 04:41:43;;;;;;;35.22;5.63;;;14.50;81.90;;;;;;4967951;28;114427;-51
2024/03/30 04:44:09;;;;;;;40.10;5.88;;;14.50;82.00;;;;;;4967823;28;113376;-51
2024/03/30 04:46:35;;;;;;;30.70;6.28;;;14.50;82.10;;;;;;4968959;28;112774;-51
2024/03/30 04:49:00;;;;;;;33.30;5.78;;;14.50;81.80;;;;;;4968838;28;112728;-51
2024/03/30 04:51:26;;;;;;;35.70;5.63;;;14.50;81.80;;;;;;4968007;28;113250;-51
2024/03/30 04:53:52;;;;;;;35.85;5.20;;;14.50;81.80;;;;;;4967829;28;112660;-51
2024/03/30 04:56:18;;;;;;;34.58;5.55;;;14.50;81.80;;;;;;4968700;28;112492;-51
2024/03/30 04:58:43;;;;;;;39.10;5.78;;;14.60;81.70;;;;;;4968404;28;113053;-50
2024/03/30 05:01:10;;;;;;;30.40;4.82;;;14.60;81.70;;;;;;4967485;28;113163;-51
2024/03/30 05:03:37;;;;;;;36.67;5.28;;;14.60;81.50;;;;;;4967654;28;112906;-51
2024/03/30 05:06:05;;;;;;;26.05;5.00;;;14.60;81.40;;;;;;4968223;28;113019;-51
2024/03/30 05:08:31;;;;;;;39.40;5.88;;;14.60;81.40;;;;;;4968566;28;112927;-51
2024/03/30 05:10:57;;;;;;;35.47;5.90;;;14.60;81.30;;;;;;4967221;28;113319;-51
2024/03/30 05:13:23;;;;;;;28.10;5.05;;;14.60;81.30;;;;;;4967722;28;113141;-53
2024/03/30 05:15:49;;;;;;;30.67;5.28;;;14.60;81.30;;;;;;4968745;28;112786;-51
2024/03/30 05:18:16;;;;;;;32.72;4.95;;;14.60;81.20;;;;;;4968185;28;113177;-51
2024/03/30 05:20:49;;;;;;;34.88;5.30;;;14.60;81.00;;;;;;4965825;28;114576;-51
2024/03/30 05:23:27;;;;;;;28.38;5.28;;;14.70;80.90;;;;;;4967047;28;113729;-51
2024/03/30 05:25:55;;;;;;;33.70;5.18;;;14.70;80.80;;;;;;4968395;28;112466;-51
2024/03/30 05:28:23;;;;;;;37.92;5.50;;;14.70;80.70;;;;;;4968164;28;112636;-51
2024/03/30 05:30:50;;;;;;;28.48;5.35;;;14.70;80.50;;;;;;4967281;28;113172;-51
2024/03/30 05:33:18;;;;;;;31.40;5.03;;;14.70;80.40;;;;;;4966945;28;114154;-51
2024/03/30 05:35:49;;;;;;;32.65;4.93;;;14.80;80.30;;;;;;4967962;28;113109;-51
2024/03/30 05:38:16;;;;;;;22.67;4.60;;;14.80;80.10;;;;;;4968576;28;112971;-51
2024/03/30 05:40:42;;;;;;;24.65;4.90;;;14.80;79.90;;;;;;4967285;28;113213;-51
2024/03/30 05:43:08;;;;;;;30.83;4.85;;;14.80;79.70;;;;;;4967484;28;112819;-51
2024/03/30 05:45:41;;;;;;;35.67;6.18;;;14.90;79.60;;;;;;4968015;28;112630;-51
2024/03/30 05:48:08;;;;;;;23.27;5.32;;;14.80;79.40;;;;;;4967205;28;112750;-51
2024/03/30 05:50:34;;;;;;;31.80;5.65;;;14.90;79.40;;;;;;4966946;28;113334;-51
2024/03/30 05:53:01;;;;;;;27.95;5.05;;;15.00;79.20;;;;;;4967005;28;112975;-51
2024/03/30 05:55:27;;;;;;;28.35;5.47;;;15.00;79.00;;;;;;4968200;28;112609;-51
2024/03/30 05:57:58;;;;;;;29.65;5.28;;;15.10;78.70;;;;;;4967909;28;112648;-51
2024/03/30 06:00:25;;;;;;;22.48;4.90;;;15.10;78.70;;;;;;4966892;28;113275;-51
2024/03/30 06:02:51;;;;;;;31.55;4.60;;;15.10;78.60;;;;;;4966402;28;114227;-51
2024/03/30 06:05:16;;;;;;;36.22;5.38;;;15.10;78.60;;;;;;4967875;28;112648;-51
2024/03/30 06:07:42;;;;;;;30.50;4.80;;;15.10;78.70;;;;;;4967862;28;113914;-51
2024/03/30 06:10:09;;;;;;;24.23;5.57;;;15.10;78.40;;;;;;4966708;28;113696;-51
2024/03/30 06:12:36;;;;;;;24.20;4.68;;;15.10;78.50;;;;;;4966547;28;112588;-51
2024/03/30 06:15:06;;;;;;;29.25;4.78;;;15.10;78.50;;;;;;4967564;28;112669;-51
2024/03/30 06:17:38;;;;;;;28.25;4.60;;;15.20;78.40;;;;;;4967322;28;112932;-51
2024/03/30 06:20:08;;;;;;;24.95;4.70;;;15.20;78.30;;;;;;4966284;28;114475;-52
2024/03/30 06:22:34;;;;;;;29.92;5.10;;;15.20;78.40;;;;;;4966590;28;113804;-51
2024/03/30 06:25:01;;;;;;;26.17;5.72;;;15.30;78.50;;;;;;4967651;28;112463;-52
2024/03/30 06:27:27;;;;;;;29.83;4.82;;;15.30;78.50;;;;;;4967595;28;112688;-51
2024/03/30 06:29:53;;;;;;;27.65;5.18;;;15.30;78.30;;;;;;4966275;28;115457;-51
2024/03/30 06:32:18;;;;;;;24.15;5.00;;;15.30;78.30;;;;;;4966597;28;112685;-51
2024/03/30 06:34:44;;;;;;;20.80;4.00;;;15.30;78.10;;;;;;4967699;28;112991;-51
2024/03/30 06:37:10;;;;;;;25.55;4.88;;;15.40;78.00;;;;;;4967243;28;112909;-51
2024/03/30 06:45:04;;;;;;;25.58;4.82;;;15.30;77.80;;;;;;4968245;28;113368;-51
2024/03/30 06:47:29;;;;;;;25.95;4.97;;;15.40;77.80;;;;;;4969899;28;112976;-51
2024/03/30 06:49:55;;;;;;;29.60;5.05;;;15.40;77.60;;;;;;4969721;28;113211;-51
2024/03/30 06:52:21;;;;;;;30.95;5.15;;;15.40;77.60;;;;;;4969585;28;112919;-51
2024/03/30 06:54:46;;;;;;;31.80;5.20;;;15.40;77.60;;;;;;4970723;28;112567;-51
2024/03/30 06:57:12;;;;;;;24.35;4.70;;;15.50;77.70;;;;;;4970686;28;112755;-51
2024/03/30 06:59:38;;;;;;;26.52;4.50;;;15.50;77.60;;;;;;4969195;28;113287;-50
2024/03/30 07:02:03;;;;;;;33.00;6.40;;;15.50;77.50;;;;;;4969098;28;114539;-50
2024/03/30 07:04:29;;;;;;;23.95;4.93;;;15.60;77.60;;;;;;4970392;28;112831;-50
2024/03/30 07:06:55;;;;;;;36.08;6.18;;;15.60;77.30;;;;;;4970618;28;112775;-50
2024/03/30 07:09:22;;;;;;;24.35;4.95;;;15.60;77.40;;;;;;4968874;28;114295;-50
2024/03/30 07:11:47;;;;;;;28.55;4.93;;;15.70;77.10;;;;;;4969211;28;112791;-50
2024/03/30 07:14:13;;;;;;;34.28;6.63;;;15.70;77.00;;;;;;4970244;28;112683;-51
2024/03/30 07:16:39;;;;;;;32.40;5.82;;;15.70;76.90;;;;;;4970306;28;113191;-51
2024/03/30 07:19:04;;;;;;;27.08;5.93;;;15.70;76.70;;;;;;4969353;28;113207;-50
2024/03/30 07:21:30;;;;;;;21.55;5.15;;;15.80;76.70;;;;;;4968943;28;113703;-51
2024/03/30 07:23:56;;;;;;;25.55;5.82;;;15.80;76.60;;;;;;4970073;28;112878;-51
2024/03/30 07:26:21;;;;;;;30.73;5.70;;;15.80;76.50;;;;;;4970126;28;112853;-52
2024/03/30 07:28:47;;;;;;;31.95;5.15;;;15.90;76.30;;;;;;4968965;28;113609;-51
2024/03/30 07:31:13;;;;;;;22.65;5.45;;;15.90;76.20;;;;;;4968918;28;113831;-51
2024/03/30 07:33:38;;;;;;;27.05;5.18;;;16.00;76.00;;;;;;4970035;28;113050;-51
2024/03/30 07:36:04;;;;;;;29.08;5.20;;;16.00;75.80;;;;;;4970056;28;112790;-51
2024/03/30 07:38:32;;;;;;;28.30;5.40;;;16.00;75.90;;;;;;4968628;28;113254;-51
2024/03/30 07:40:59;;;;;;;29.35;5.13;;;16.10;75.70;;;;;;4968304;28;113903;-52
2024/03/30 07:43:25;;;;;;;32.03;4.90;;;16.10;75.90;;;;;;4970549;28;112795;-50
2024/03/30 07:45:54;;;;;;;29.48;5.05;;;16.00;76.10;;;;;;4969589;28;113144;-51
2024/03/30 07:48:20;;;;;;;27.33;5.28;;;16.10;75.90;;;;;;4968032;28;113327;-51
2024/03/30 07:50:45;;;;;;;33.28;5.95;;;16.20;75.70;;;;;;4968190;28;112924;-51
2024/03/30 07:53:11;;;;;;;30.70;5.63;;;16.30;75.60;;;;;;4969163;28;112762;-51
2024/03/30 07:55:37;;;;;;;27.85;5.47;;;16.50;75.20;;;;;;4969471;28;112936;-52
2024/03/30 07:58:03;;;;;;;31.27;5.05;;;16.50;75.10;;;;;;4968062;28;114606;-51
2024/03/30 08:00:28;;;;;;;29.33;5.53;;;16.50;75.00;;;;;;4968532;28;112963;-51
2024/03/30 08:03:00;;;;;;;31.13;5.35;;;16.60;74.70;;;;;;4969409;28;112923;-51
2024/03/30 08:05:27;;;;;;;36.03;4.93;;;16.70;74.30;;;;;;4969613;28;112626;-51
2024/03/30 08:07:53;;;;;;;28.55;5.72;;;16.80;73.90;;;;;;4968054;28;113228;-52
2024/03/30 08:10:18;;;;;;;29.30;5.45;;;16.80;73.90;;;;;;4968162;28;114273;-51
2024/03/30 08:12:44;;;;;;;30.35;5.07;;;16.80;73.90;;;;;;4969390;28;112582;-51
2024/03/30 08:15:10;;;;;;;28.20;5.10;;;16.90;73.70;;;;;;4969357;28;113162;-52
2024/03/30 08:17:36;;;;;;;25.10;4.38;;;16.80;73.60;;;;;;4968057;28;113113;-51
2024/03/30 08:20:02;;;;;;;28.17;5.07;;;16.90;73.40;;;;;;4967974;28;114783;-51
2024/03/30 08:22:28;;;;;;;33.47;5.47;;;16.90;73.30;;;;;;4969438;28;112821;-51
2024/03/30 08:24:54;;;;;;;28.10;5.15;;;17.00;72.90;;;;;;4969229;28;113328;-50
2024/03/30 08:27:19;;;;;;;33.83;5.93;;;17.30;72.40;;;;;;4967958;28;113221;-52
2024/03/30 08:29:45;;;;;;;29.88;5.55;;;17.30;72.10;;;;;;4968068;28;112724;-51
2024/03/30 08:32:11;;;;;;;28.98;5.15;;;17.20;71.80;;;;;;4968986;28;112491;-53
2024/03/30 08:34:36;;;;;;;33.90;5.85;;;17.30;71.90;;;;;;4969229;28;112841;-51
2024/03/30 08:37:02;;;;;;;32.13;4.03;;;17.40;71.40;;;;;;4967573;28;114269;-51
2024/03/30 08:39:28;;;;;;;33.20;5.65;;;17.60;70.50;;;;;;4967549;28;113779;-51
2024/03/30 08:41:54;;;;;;;33.33;8.48;;;17.90;70.40;;;;;;4969216;28;112774;-51
2024/03/30 08:44:19;;;;;;;36.67;6.88;;;18.10;69.10;;;;;;4968937;28;113213;-51
2024/03/30 08:46:45;;;;;;;32.95;5.60;;;18.20;69.10;;;;;;4967594;28;113492;-51
2024/03/30 08:49:12;;;;;;;23.08;4.90;;;18.20;68.70;;;;;;4967498;28;112815;-51
2024/03/30 08:51:38;;;;;;;25.55;5.13;;;18.20;68.90;;;;;;4968749;28;112991;-51
2024/03/30 08:54:05;;;;;;;43.00;6.47;;;18.40;69.00;;;;;;4968626;28;112685;-51
2024/03/30 08:56:32;;;;;;;23.63;5.20;;;18.30;68.40;;;;;;4967938;28;113302;-51
2024/03/30 08:58:57;;;;;;;26.67;4.95;;;18.30;68.70;;;;;;4967417;28;112829;-51
2024/03/30 09:01:23;;;;;;;30.30;4.78;;;18.40;68.20;;;;;;4968476;28;112537;-51
2024/03/30 09:03:50;;;;;;;27.25;4.82;;;18.50;67.60;;;;;;4968552;28;112692;-51
2024/03/30 09:06:15;;;;;;;33.80;5.85;;;18.40;67.80;;;;;;4966936;28;114424;-51
2024/03/30 09:08:41;;;;;;;23.17;4.53;;;18.50;68.00;;;;;;4967585;28;113715;-51
2024/03/30 09:11:10;;;;;;;27.92;4.82;;;18.50;67.90;;;;;;4972688;28;113093;-52
2024/03/30 09:13:37;;;;;;;27.95;5.22;;;18.40;67.70;;;;;;4968422;28;113191;-52
2024/03/30 09:16:04;;;;;;;29.88;5.50;;;18.40;68.20;;;;;;4967088;28;113750;-53
2024/03/30 09:18:30;;;;;;;26.40;4.72;;;18.40;68.30;;;;;;4966948;28;113722;-51
2024/03/30 09:20:56;;;;;;;30.20;5.80;;;18.60;68.20;;;;;;4968444;28;113016;-51
2024/03/30 09:23:22;;;;;;;31.38;5.57;;;18.60;68.20;;;;;;4968110;28;112872;-51
2024/03/30 09:25:47;;;;;;;26.63;4.82;;;18.70;67.90;;;;;;4967231;28;113258;-51
2024/03/30 09:28:13;;;;;;;30.55;5.25;;;18.50;67.70;;;;;;4967059;28;113014;-51
2024/03/30 09:30:39;;;;;;;29.63;5.13;;;18.40;68.00;;;;;;4967880;28;112815;-51
2024/03/30 09:33:04;;;;;;;22.85;4.68;;;18.40;67.90;;;;;;4968489;28;112804;-52
2024/03/30 09:35:30;;;;;;;24.40;4.70;;;18.40;68.30;;;;;;4968060;28;113207;-51
2024/03/30 09:37:56;;;;;;;24.10;5.07;;;18.50;68.40;;;;;;4967115;28;112831;-51
2024/03/30 09:40:22;;;;;;;25.02;5.38;;;18.60;67.80;;;;;;4980177;28;112655;-51
2024/03/30 09:42:49;;;;;;;23.50;4.43;;;18.60;67.60;;;;;;4975330;28;112725;-51
2024/03/30 09:45:17;;;;;;;26.98;4.75;;;18.50;68.20;;;;;;4967085;28;115795;-51
2024/03/30 09:47:47;;;;;;;23.27;4.75;;;18.70;68.00;;;;;;4972367;28;113008;-51
2024/03/30 09:50:14;;;;;;;25.08;4.50;;;18.70;68.20;;;;;;4967943;28;113127;-52
2024/03/30 09:52:41;;;;;;;31.00;6.55;;;18.90;67.60;;;;;;4967858;28;112904;-52
2024/03/30 09:55:14;;;;;;;25.00;4.78;;;18.90;67.40;;;;;;4957254;28;113475;-52
2024/03/30 09:57:41;;;;;;;33.08;5.57;;;19.00;67.00;;;;;;4966452;28;113877;-52
2024/03/30 10:00:12;;;;;;;23.27;4.65;;;19.00;67.00;;;;;;4967647;28;112588;-51
2024/03/30 10:02:38;;;;;;;25.13;4.35;;;18.90;67.20;;;;;;4967603;28;112839;-52
2024/03/30 10:05:09;;;;;;;31.02;5.20;;;18.90;67.40;;;;;;4967597;28;113379;-51
2024/03/30 10:07:48;;;;;;;31.30;5.15;;;18.80;67.40;;;;;;4970819;28;113201;-52
2024/03/30 10:10:18;;;;;;;29.60;6.00;;;18.60;68.50;;;;;;4973262;28;113325;-52
2024/03/30 10:13:07;;;;;;;25.55;4.72;;;18.60;68.60;;;;;;4972283;28;112691;-52
2024/03/30 10:15:45;;;;;;;25.58;5.07;;;18.50;68.40;;;;;;4966728;28;113343;-52
2024/03/30 10:18:15;;;;;;;27.55;5.50;;;18.30;68.70;;;;;;4966236;28;113088;-52
2024/03/30 10:20:41;;;;;;;31.48;5.10;;;18.30;69.60;;;;;;4972417;28;113179;-52
2024/03/30 10:23:07;;;;;;;33.88;5.80;;;18.30;69.50;;;;;;4970680;28;112691;-51
2024/03/30 10:25:35;;;;;;;34.47;5.88;;;18.20;69.40;;;;;;4970378;28;114312;-51
2024/03/30 10:28:01;;;;;;;28.60;5.43;;;18.10;69.80;;;;;;4968194;28;115556;-51
2024/03/30 10:30:27;;;;;;;36.10;5.45;;;18.20;70.10;;;;;;4970882;28;112669;-51
2024/03/30 10:32:59;;;;;;;32.35;5.30;;;18.30;70.10;;;;;;4971188;28;113163;-51
2024/03/30 10:35:26;;;;;;;36.70;5.63;;;18.30;70.10;;;;;;4971008;28;114434;-51
2024/03/30 10:37:54;;;;;;;31.33;5.47;;;18.30;70.30;;;;;;4971700;28;112617;-52
2024/03/30 10:40:20;;;;;;;37.38;6.72;;;18.30;70.50;;;;;;4986396;28;112732;-54
2024/03/30 10:42:45;;;;;;;34.20;6.13;;;18.20;70.60;;;;;;4984155;28;112776;-52
2024/03/30 10:45:11;;;;;;;32.80;6.13;;;18.20;71.00;;;;;;4969597;28;114529;-51
2024/03/30 10:47:38;;;;;;;36.85;7.30;;;18.20;70.90;;;;;;4967430;28;113870;-52
2024/03/30 10:50:05;;;;;;;32.75;5.93;;;18.30;71.20;;;;;;4968603;28;113297;-51
2024/03/30 10:52:30;;;;;;;42.65;8.52;;;18.10;71.10;;;;;;4968486;28;113077;-51
2024/03/30 10:54:57;;;;;;;38.05;6.10;;;18.00;71.80;;;;;;4968195;28;113424;-52
2024/03/30 10:57:24;;;;;;;38.60;6.95;;;17.90;72.20;;;;;;4968255;28;113190;-55
2024/03/30 10:59:51;;;;;;;37.50;6.82;;;17.90;72.10;;;;;;4969618;28;113818;-52
2024/03/30 11:02:18;;;;;;;40.60;7.53;;;18.10;72.10;;;;;;4969641;28;112764;-51
2024/03/30 11:04:44;;;;;;;38.05;6.40;;;18.30;71.90;;;;;;4968577;28;114391;-51
2024/03/30 11:07:13;;;;;;;40.17;6.97;;;18.50;71.10;;;;;;4969052;28;112699;-53
2024/03/30 11:09:49;;;;;;;39.08;6.38;;;18.40;70.60;;;;;;4969820;28;113235;-52
2024/03/30 11:12:15;;;;;;;40.80;6.85;;;18.20;71.00;;;;;;4968868;28;112877;-51
2024/03/30 11:14:42;;;;;;;37.00;5.80;;;18.20;71.40;;;;;;4968615;28;114984;-52
2024/03/30 11:17:14;;;;;;;38.38;7.57;;;18.20;71.50;;;;;;4968811;28;112568;-52
2024/03/30 11:20:13;;;;;;;37.45;7.07;;;18.20;71.40;;;;;;4970045;28;112938;-51
2024/03/30 11:23:03;;;;;;;35.47;6.32;;;18.20;71.80;;;;;;4962196;28;113222;-51
2024/03/30 11:25:33;;;;;;;33.17;5.78;;;18.10;71.90;;;;;;4969065;28;113165;-51
2024/03/30 11:28:24;;;;;;;38.58;6.55;;;18.30;71.80;;;;;;4968855;28;112754;-51
2024/03/30 11:31:05;;;;;;;42.97;7.47;;;18.40;71.60;;;;;;4969886;28;113063;-51
2024/03/30 11:33:44;;;;;;;30.07;6.07;;;18.30;71.40;;;;;;4968222;28;112736;-51
2024/03/30 11:36:30;;;;;;;32.92;5.80;;;18.20;71.50;;;;;;4968866;28;113263;-51
2024/03/30 11:39:14;;;;;;;30.45;6.47;;;18.00;71.90;;;;;;4968729;28;112655;-51
2024/03/30 11:41:43;;;;;;;42.85;6.68;;;18.00;72.10;;;;;;4968303;28;112930;-51
2024/03/30 11:44:10;;;;;;;37.42;5.93;;;18.10;72.20;;;;;;4969859;28;113753;-51
2024/03/30 11:46:40;;;;;;;29.77;6.07;;;18.00;72.00;;;;;;4968406;28;114437;-51
2024/03/30 11:49:09;;;;;;;35.53;5.63;;;18.10;72.20;;;;;;4968313;28;113855;-53
2024/03/30 11:51:40;;;;;;;31.33;5.35;;;18.10;72.10;;;;;;4969617;28;112640;-51
2024/03/30 11:54:19;;;;;;;36.28;6.30;;;18.00;72.20;;;;;;4969369;28;112727;-51
2024/03/30 11:57:03;;;;;;;34.80;5.80;;;18.00;72.10;;;;;;4968239;28;114556;-51
2024/03/30 11:59:41;;;;;;;32.55;6.60;;;18.00;71.90;;;;;;4967899;28;113203;-51
2024/03/30 12:02:14;;;;;;;34.13;6.38;;;18.00;72.20;;;;;;4969200;28;112891;-51
2024/03/30 12:04:46;;;;;;;42.75;6.53;;;17.90;72.10;;;;;;4969529;28;112838;-51
2024/03/30 12:07:19;;;;;;;38.78;7.70;;;17.90;72.20;;;;;;4968053;28;113483;-51
2024/03/30 12:09:48;;;;;;;37.05;5.72;;;17.90;72.50;;;;;;4968022;28;113687;-51
2024/03/30 12:12:23;;;;;;;42.05;8.13;;;17.90;73.10;;;;;;4968989;28;113626;-51
2024/03/30 12:14:53;;;;;;;41.95;6.95;;;17.70;72.50;;;;;;4967493;28;112754;-52
2024/03/30 12:17:20;;;;;;;42.22;6.97;;;17.60;73.30;;;;;;4968160;28;113195;-51
2024/03/30 12:19:47;;;;;;;61.97;8.95;;;17.70;73.50;;;;;;4967845;28;113780;-51
2024/03/30 12:22:14;;;;;;;47.25;7.90;;;17.60;73.40;;;;;;4968850;28;112680;-51
2024/03/30 12:24:41;;;;;;;48.63;8.00;;;17.40;73.80;;;;;;4968830;28;112957;-51
2024/03/30 12:27:07;;;;;;;49.33;8.52;;;17.40;73.80;;;;;;4967644;28;114488;-51
2024/03/30 12:29:33;;;;;;;44.88;7.57;;;17.30;74.20;;;;;;4967806;28;112773;-51
2024/03/30 12:31:59;;;;;;;59.50;8.70;;;17.40;74.30;;;;;;4968677;28;112583;-51